Costa Adriatica — IFQQ — position and weather

sailwx.info

Track history (hours):
 
Tides and Currents Weather Stations Pressure Air Temp Water Temp Dewpoint Dewpoint Depression Visibility Wind Speed Wind Dir Waves Ship Positions

Costa Adriatica

Last reported at 2018-Jun-16 12:07 UTC. Time now 2018-Jun-18 19:10 UTC.
Position N 45°38' E 012°59'.

Length 28 m.

Type: Passenger vessel. MMSI: 247194400.

Date/timePositionNaut miles runAvg speedWind from/ knotsBaromVisibWave heightAir tempDewpointWater temp
2018-Jun-16 12:07N 45°38' E 012°59'2 0.5
2018-Jun-16 07:24N 45°36' E 012°56'23 0.6
2018-Jun-14 14:30N 45°26' E 012°27'4 8.5
2018-Jun-14 14:00N 45°26' E 012°21'0 0.0
2018-Jun-14 13:30N 45°26' E 012°21'0 0.0
2018-Jun-14 13:00N 45°26' E 012°21'0 0.0
2018-Jun-14 12:30N 45°26' E 012°21'0 0.0
2018-Jun-14 12:00N 45°26' E 012°21'0 0.0
2018-Jun-14 11:30N 45°26' E 012°21'0 0.0
2018-Jun-14 10:59N 45°26' E 012°21'0 0.0
2018-Jun-14 10:30N 45°26' E 012°21'0 0.0
2018-Jun-14 10:00N 45°26' E 012°21'0 0.0
2018-Jun-14 09:29N 45°26' E 012°21'0 0.0
2018-Jun-14 08:59N 45°26' E 012°21'0 0.0
2018-Jun-14 08:30N 45°26' E 012°21'2 4.6
2018-Jun-14 08:00N 45°26' E 012°24'1617.5
2018-Jun-14 07:06N 45°32' E 012°45'1019.4
2018-Jun-14 06:35N 45°37' E 012°58'1 8.1
2018-Jun-14 06:27N 45°38' E 012°59'0 0.0
2018-Jun-12 15:59N 45°38' E 012°59'2617.7
2018-Jun-12 14:32N 45°25' E 012°26'111.2
2018-Jun-12 14:24N 45°26' E 012°25'3 6.2
2018-Jun-12 14:00N 45°26' E 012°21'0 0.0
2018-Jun-12 13:30N 45°26' E 012°21'0 0.0
2018-Jun-12 13:00N 45°26' E 012°21'0 0.0
2018-Jun-12 12:29N 45°26' E 012°21'0 0.0
2018-Jun-12 12:00N 45°26' E 012°21'0 0.0
2018-Jun-12 11:30N 45°26' E 012°21'0 0.0
2018-Jun-12 10:59N 45°26' E 012°21'0 0.0
2018-Jun-12 10:30N 45°26' E 012°21'0 0.0
2018-Jun-12 10:00N 45°26' E 012°21'0 0.0
2018-Jun-12 09:30N 45°26' E 012°21'0 0.0
2018-Jun-12 09:00N 45°26' E 012°21'0 0.0
2018-Jun-12 08:29N 45°26' E 012°21'2 4.1
2018-Jun-12 08:00N 45°26' E 012°24'816.3
2018-Jun-12 07:29N 45°28' E 012°35'1019.2
2018-Jun-12 07:00N 45°33' E 012°47'918.6
2018-Jun-12 06:30N 45°37' E 012°59'  
2018-Jun-07 15:57N 45°38' E 012°59'816.5
2018-Jun-07 15:26N 45°33' E 012°49'1718.5
2018-Jun-07 14:31N 45°26' E 012°27'111.0
2018-Jun-07 14:24N 45°26' E 012°25'3 6.9
2018-Jun-07 14:00N 45°26' E 012°21'0 0.1
2018-Jun-07 13:30N 45°26' E 012°21'0 0.0
2018-Jun-07 13:00N 45°26' E 012°21'0 0.0
2018-Jun-07 12:30N 45°26' E 012°21'0 0.0
2018-Jun-07 12:00N 45°26' E 012°21'0 0.0
2018-Jun-07 11:30N 45°26' E 012°21'0 0.0
2018-Jun-07 11:00N 45°26' E 012°21'0 0.0
2018-Jun-07 10:29N 45°26' E 012°21'0 0.0
2018-Jun-07 10:00N 45°26' E 012°21'0 0.0
2018-Jun-07 09:30N 45°26' E 012°21'0 0.0
2018-Jun-07 08:59N 45°26' E 012°21'0 0.0
2018-Jun-07 08:30N 45°26' E 012°21'2 3.4
2018-Jun-07 08:00N 45°26' E 012°23'915.2
2018-Jun-07 07:25N 45°28' E 012°36'820.0
2018-Jun-07 07:00N 45°32' E 012°46'1019.8
2018-Jun-07 06:30N 45°37' E 012°58'  
Track history (hours):
 
Tides and Currents Weather Stations Pressure Air Temp Water Temp Dewpoint Dewpoint Depression Visibility Wind Speed Wind Dir Waves Ship Positions

Costa Adriatica

Last reported at 2018-Jun-16 12:07 UTC. Time now 2018-Jun-18 19:10 UTC.
Position N 45°38' E 012°59'.

Length 28 m.

Type: Passenger vessel. MMSI: 247194400.

Date/timePositionNaut miles runAvg speedWind from/ knotsBaromVisibWave heightAir tempDewpointWater temp
2018-Jun-16 12:07N 45°38' E 012°59'2 0.5
2018-Jun-16 07:24N 45°36' E 012°56'23 0.6
2018-Jun-14 14:30N 45°26' E 012°27'4 8.5
2018-Jun-14 14:00N 45°26' E 012°21'0 0.0
2018-Jun-14 13:30N 45°26' E 012°21'0 0.0
2018-Jun-14 13:00N 45°26' E 012°21'0 0.0
2018-Jun-14 12:30N 45°26' E 012°21'0 0.0
2018-Jun-14 12:00N 45°26' E 012°21'0 0.0
2018-Jun-14 11:30N 45°26' E 012°21'0 0.0
2018-Jun-14 10:59N 45°26' E 012°21'0 0.0
2018-Jun-14 10:30N 45°26' E 012°21'0 0.0
2018-Jun-14 10:00N 45°26' E 012°21'0 0.0
2018-Jun-14 09:29N 45°26' E 012°21'0 0.0
2018-Jun-14 08:59N 45°26' E 012°21'0 0.0
2018-Jun-14 08:30N 45°26' E 012°21'2 4.6
2018-Jun-14 08:00N 45°26' E 012°24'1617.5
2018-Jun-14 07:06N 45°32' E 012°45'1019.4
2018-Jun-14 06:35N 45°37' E 012°58'1 8.1
2018-Jun-14 06:27N 45°38' E 012°59'0 0.0
2018-Jun-12 15:59N 45°38' E 012°59'2617.7
2018-Jun-12 14:32N 45°25' E 012°26'111.2
2018-Jun-12 14:24N 45°26' E 012°25'3 6.2
2018-Jun-12 14:00N 45°26' E 012°21'0 0.0
2018-Jun-12 13:30N 45°26' E 012°21'0 0.0
2018-Jun-12 13:00N 45°26' E 012°21'0 0.0
2018-Jun-12 12:29N 45°26' E 012°21'0 0.0
2018-Jun-12 12:00N 45°26' E 012°21'0 0.0
2018-Jun-12 11:30N 45°26' E 012°21'0 0.0
2018-Jun-12 10:59N 45°26' E 012°21'0 0.0
2018-Jun-12 10:30N 45°26' E 012°21'0 0.0
2018-Jun-12 10:00N 45°26' E 012°21'0 0.0
2018-Jun-12 09:30N 45°26' E 012°21'0 0.0
2018-Jun-12 09:00N 45°26' E 012°21'0 0.0
2018-Jun-12 08:29N 45°26' E 012°21'2 4.1
2018-Jun-12 08:00N 45°26' E 012°24'816.3
2018-Jun-12 07:29N 45°28' E 012°35'1019.2
2018-Jun-12 07:00N 45°33' E 012°47'918.6
2018-Jun-12 06:30N 45°37' E 012°59'  
2018-Jun-07 15:57N 45°38' E 012°59'816.5
2018-Jun-07 15:26N 45°33' E 012°49'1718.5
2018-Jun-07 14:31N 45°26' E 012°27'111.0
2018-Jun-07 14:24N 45°26' E 012°25'3 6.9
2018-Jun-07 14:00N 45°26' E 012°21'0 0.1
2018-Jun-07 13:30N 45°26' E 012°21'0 0.0
2018-Jun-07 13:00N 45°26' E 012°21'0 0.0
2018-Jun-07 12:30N 45°26' E 012°21'0 0.0
2018-Jun-07 12:00N 45°26' E 012°21'0 0.0
2018-Jun-07 11:30N 45°26' E 012°21'0 0.0
2018-Jun-07 11:00N 45°26' E 012°21'0 0.0
2018-Jun-07 10:29N 45°26' E 012°21'0 0.0
2018-Jun-07 10:00N 45°26' E 012°21'0 0.0
2018-Jun-07 09:30N 45°26' E 012°21'0 0.0
2018-Jun-07 08:59N 45°26' E 012°21'0 0.0
2018-Jun-07 08:30N 45°26' E 012°21'2 3.4
2018-Jun-07 08:00N 45°26' E 012°23'915.2
2018-Jun-07 07:25N 45°28' E 012°36'820.0
2018-Jun-07 07:00N 45°32' E 012°46'1019.8
2018-Jun-07 06:30N 45°37' E 012°58'  

Dump ship's entire track history